Historyczne dane pomiarowe

Dodano dane terminowe – wersja testowa.

Dane z okresu 1951-2019

Wersja bazy: 1.34 [2019-03-16, lista zmian], aktualizacja planowana na 2019-04-15

Dane meteo z obszaru Polski uzyskane na podstawie danych udostępnionych przez Instytut Meteorologii i Gospodarki Wodnej – Państwowy Instytut Badawczy.

 

Wybierz Datę:    

       

TemperaturaWilgotnośćWiatrCiśnienieOpadyŚniegCzas trwania zjawisk
 Stacja t tx tn tng RH VA  wxwx mslp ppp RRR   cm mm wxwxwxwxwxwxwx
1970-05-15 8.7 14.6 5.4--- 6.7 2.0---- 0.0------------
1970-05-16 5.9 12.3 2.7--- 1.7 3.7---- 0.0------------
1970-05-17 6.9 12.5 0.3--- 0.0 2.3---- 0.0------------
1970-05-18 9.4 17.6 0.6--- 0.7 3.3---- 0.0------------
1970-05-19 10.0 13.0 3.4--- 8.0 6.3---- 0.5------------
1970-05-20 8.6 12.1 6.4--- 7.3 4.3---- 0.0------------
1970-05-21 9.1 13.6 8.1--- 8.0 3.3---- 1.9------------
1970-05-22 7.3 12.6 5.5--- 6.7 3.7---- 3.2------------
1970-05-23 7.2 10.1 6.4--- 6.3 4.0---- 0.0------------
1970-05-24 8.0 14.7 2.4--- 1.3 1.7---- 0.0------------
1970-05-25 12.9 18.8 1.7--- 2.0 1.7---- 0.0------------
1970-05-26 9.8 15.9 7.5--- 8.0 1.7---- 8.6------------
1970-05-27 9.5 12.6 7.4--- 7.3 1.7---- 6.6------------
1970-05-28 10.6 15.2 5.9--- 7.7 1.0---- 4.4------------
1970-05-29 9.7 12.1 7.9--- 8.0 1.0---- 8.6------------
1970-05-30 10.3 11.3 8.4--- 8.0 2.3---- 2.4------------
1970-05-31 9.4 12.4 8.4--- 8.0 3.7---- 0.8------------
1970-06-01 9.0 10.6 6.9--- 8.0 4.3---- 1.0------------
1970-06-02 8.5 12.9 7.0--- 7.7 5.0---- 0.0------------
1970-06-03 10.3 15.7 5.5--- 3.0 2.3---- 0.0------------
1970-06-04 10.5 15.2 3.9--- 5.0 2.7---- 0.0------------
1970-06-05 18.2 22.9 9.5--- 3.3 4.3---- 0.0------------
1970-06-06 17.4 23.2 11.4--- 3.7 2.3---- 0.0------------
1970-06-07 19.8 25.5 10.0--- 3.0 2.3---- 0.0------------
1970-06-08 21.3 26.2 12.9--- 2.7 3.3---- 0.0------------
1970-06-09 19.6 26.4 14.1--- 3.0 3.3---- 1.6------------
1970-06-10 19.8 26.0 11.9--- 2.0 1.7---- 10.3------------
1970-06-11 16.0 20.8 12.3--- 4.0 2.0---- 0.0------------
1970-06-12 10.1 16.1 6.9--- 3.3 5.7---- 6.9------------
1970-06-13 7.9 8.7 6.4--- 5.3 4.0---- 31.4------------
234.6 ms

 

Źródłem pochodzenia danych jest Instytut Meteorologii i Gospodarki Wodnej – Państwowy Instytut Badawczy. Dane Instytutu Meteorologii i Gospodarki Wodnej – Państwowego Instytutu Badawczego zostały przetworzone.

Dane źródłowe można odnaleźć na stronie https://dane.imgw.pl